sensor_id;sensor_type;location;lat;lon;timestamp;temperature;humidity
62259;DHT22;48241;48.824;10.102;2022-11-20T00:01:39;8.30;96.70
62259;DHT22;48241;48.824;10.102;2022-11-20T00:04:05;8.50;96.20
62259;DHT22;48241;48.824;10.102;2022-11-20T00:06:31;8.40;96.30
62259;DHT22;48241;48.824;10.102;2022-11-20T00:08:59;8.60;95.80
62259;DHT22;48241;48.824;10.102;2022-11-20T00:11:27;8.70;95.60
62259;DHT22;48241;48.824;10.102;2022-11-20T00:13:55;8.70;95.30
62259;DHT22;48241;48.824;10.102;2022-11-20T00:16:23;8.80;95.70
62259;DHT22;48241;48.824;10.102;2022-11-20T00:18:50;8.80;95.40
62259;DHT22;48241;48.824;10.102;2022-11-20T00:21:20;8.90;95.20
62259;DHT22;48241;48.824;10.102;2022-11-20T00:23:47;8.80;95.10
62259;DHT22;48241;48.824;10.102;2022-11-20T00:26:15;8.80;94.80
62259;DHT22;48241;48.824;10.102;2022-11-20T00:28:42;8.80;94.80
62259;DHT22;48241;48.824;10.102;2022-11-20T00:31:13;8.60;95.20
62259;DHT22;48241;48.824;10.102;2022-11-20T00:33:39;8.60;95.30
62259;DHT22;48241;48.824;10.102;2022-11-20T00:36:13;8.50;94.90
62259;DHT22;48241;48.824;10.102;2022-11-20T00:38:39;8.40;95.10
62259;DHT22;48241;48.824;10.102;2022-11-20T00:41:07;8.40;95.70
62259;DHT22;48241;48.824;10.102;2022-11-20T00:43:33;8.40;95.30
62259;DHT22;48241;48.824;10.102;2022-11-20T00:46:12;8.40;95.10
62259;DHT22;48241;48.824;10.102;2022-11-20T00:48:38;8.40;94.80
62259;DHT22;48241;48.824;10.102;2022-11-20T00:51:03;8.30;94.90
62259;DHT22;48241;48.824;10.102;2022-11-20T00:53:29;8.20;95.20
62259;DHT22;48241;48.824;10.102;2022-11-20T00:55:57;8.20;95.10
62259;DHT22;48241;48.824;10.102;2022-11-20T00:58:23;8.20;95.20
62259;DHT22;48241;48.824;10.102;2022-11-20T01:00:49;8.30;95.10
62259;DHT22;48241;48.824;10.102;2022-11-20T01:03:19;8.40;95.10
62259;DHT22;48241;48.824;10.102;2022-11-20T01:05:44;8.50;94.80
62259;DHT22;48241;48.824;10.102;2022-11-20T01:08:10;8.60;94.60
62259;DHT22;48241;48.824;10.102;2022-11-20T01:10:36;8.50;94.70
62259;DHT22;48241;48.824;10.102;2022-11-20T01:13:01;8.50;94.40
62259;DHT22;48241;48.824;10.102;2022-11-20T01:15:45;8.50;94.90
62259;DHT22;48241;48.824;10.102;2022-11-20T01:18:11;8.60;95.00
62259;DHT22;48241;48.824;10.102;2022-11-20T01:20:37;8.60;94.50
62259;DHT22;48241;48.824;10.102;2022-11-20T01:23:03;8.60;94.40
62259;DHT22;48241;48.824;10.102;2022-11-20T01:25:29;8.70;94.10
62259;DHT22;48241;48.824;10.102;2022-11-20T01:27:54;8.60;94.20
62259;DHT22;48241;48.824;10.102;2022-11-20T01:30:20;8.70;93.90
62259;DHT22;48241;48.824;10.102;2022-11-20T01:32:46;8.70;94.00
62259;DHT22;48241;48.824;10.102;2022-11-20T01:35:11;8.80;94.30
62259;DHT22;48241;48.824;10.102;2022-11-20T01:37:37;8.70;93.90
62259;DHT22;48241;48.824;10.102;2022-11-20T01:40:03;8.80;94.00
62259;DHT22;48241;48.824;10.102;2022-11-20T01:42:28;8.60;93.70
62259;DHT22;48241;48.824;10.102;2022-11-20T01:46:33;8.60;93.90
62259;DHT22;48241;48.824;10.102;2022-11-20T01:48:32;8.40;93.40
62259;DHT22;48241;48.824;10.102;2022-11-20T01:50:59;8.50;94.10
62259;DHT22;48241;48.824;10.102;2022-11-20T01:53:29;8.40;94.20
62259;DHT22;48241;48.824;10.102;2022-11-20T01:55:57;8.40;93.80
62259;DHT22;48241;48.824;10.102;2022-11-20T01:58:28;8.20;94.00
62259;DHT22;48241;48.824;10.102;2022-11-20T02:00:55;8.10;94.40
62259;DHT22;48241;48.824;10.102;2022-11-20T02:03:21;7.80;94.60
62259;DHT22;48241;48.824;10.102;2022-11-20T02:08:51;7.90;94.90
62259;DHT22;48241;48.824;10.102;2022-11-20T02:11:18;7.90;94.40
62259;DHT22;48241;48.824;10.102;2022-11-20T02:13:44;7.70;95.00
62259;DHT22;48241;48.824;10.102;2022-11-20T02:16:21;7.70;94.90
62259;DHT22;48241;48.824;10.102;2022-11-20T02:18:49;7.80;94.80
62259;DHT22;48241;48.824;10.102;2022-11-20T02:21:27;8.00;94.50
62259;DHT22;48241;48.824;10.102;2022-11-20T02:24:11;7.90;94.20
62259;DHT22;48241;48.824;10.102;2022-11-20T02:26:51;7.80;94.60
62259;DHT22;48241;48.824;10.102;2022-11-20T02:29:31;7.70;94.90
62259;DHT22;48241;48.824;10.102;2022-11-20T02:31:58;7.70;94.60
62259;DHT22;48241;48.824;10.102;2022-11-20T02:34:24;7.60;94.90
62259;DHT22;48241;48.824;10.102;2022-11-20T02:36:50;7.60;94.50
62259;DHT22;48241;48.824;10.102;2022-11-20T02:39:18;7.80;94.50
62259;DHT22;48241;48.824;10.102;2022-11-20T02:41:44;7.70;94.00
62259;DHT22;48241;48.824;10.102;2022-11-20T02:44:10;7.50;94.50
62259;DHT22;48241;48.824;10.102;2022-11-20T02:46:36;7.60;94.60
62259;DHT22;48241;48.824;10.102;2022-11-20T02:49:03;7.70;94.50
62259;DHT22;48241;48.824;10.102;2022-11-20T02:51:30;7.30;94.10
62259;DHT22;48241;48.824;10.102;2022-11-20T02:53:56;7.50;94.50
62259;DHT22;48241;48.824;10.102;2022-11-20T02:56:21;7.60;94.20
62259;DHT22;48241;48.824;10.102;2022-11-20T02:58:47;7.60;93.90
62259;DHT22;48241;48.824;10.102;2022-11-20T03:01:13;7.80;93.50
62259;DHT22;48241;48.824;10.102;2022-11-20T03:03:38;7.60;93.40
62259;DHT22;48241;48.824;10.102;2022-11-20T03:06:04;7.60;93.60
62259;DHT22;48241;48.824;10.102;2022-11-20T03:08:30;7.80;93.40
62259;DHT22;48241;48.824;10.102;2022-11-20T03:10:55;7.90;93.20
62259;DHT22;48241;48.824;10.102;2022-11-20T03:13:21;7.40;93.70
62259;DHT22;48241;48.824;10.102;2022-11-20T03:15:46;7.60;93.90
62259;DHT22;48241;48.824;10.102;2022-11-20T03:18:12;7.90;93.60
62259;DHT22;48241;48.824;10.102;2022-11-20T03:20:39;7.90;92.90
62259;DHT22;48241;48.824;10.102;2022-11-20T03:23:04;8.00;92.20
62259;DHT22;48241;48.824;10.102;2022-11-20T03:25:30;8.00;92.40
62259;DHT22;48241;48.824;10.102;2022-11-20T03:27:56;7.90;93.00
62259;DHT22;48241;48.824;10.102;2022-11-20T03:30:21;8.00;92.20
62259;DHT22;48241;48.824;10.102;2022-11-20T03:32:47;8.10;92.30
62259;DHT22;48241;48.824;10.102;2022-11-20T03:35:13;8.20;92.50
62259;DHT22;48241;48.824;10.102;2022-11-20T03:37:38;8.20;92.30
62259;DHT22;48241;48.824;10.102;2022-11-20T03:40:04;8.40;92.10
62259;DHT22;48241;48.824;10.102;2022-11-20T03:42:30;8.40;91.90
62259;DHT22;48241;48.824;10.102;2022-11-20T03:45:15;8.40;92.10
62259;DHT22;48241;48.824;10.102;2022-11-20T03:47:40;8.20;92.20
62259;DHT22;48241;48.824;10.102;2022-11-20T03:50:07;8.20;92.70
62259;DHT22;48241;48.824;10.102;2022-11-20T03:52:32;8.30;92.70
62259;DHT22;48241;48.824;10.102;2022-11-20T03:54:58;8.40;92.30
62259;DHT22;48241;48.824;10.102;2022-11-20T03:57:23;8.20;92.30
62259;DHT22;48241;48.824;10.102;2022-11-20T03:59:49;8.30;92.20
62259;DHT22;48241;48.824;10.102;2022-11-20T04:02:14;8.00;92.40
62259;DHT22;48241;48.824;10.102;2022-11-20T04:04:40;8.20;91.80
62259;DHT22;48241;48.824;10.102;2022-11-20T04:07:06;8.20;91.80
62259;DHT22;48241;48.824;10.102;2022-11-20T04:09:31;8.30;91.90
62259;DHT22;48241;48.824;10.102;2022-11-20T04:11:57;8.30;91.80
62259;DHT22;48241;48.824;10.102;2022-11-20T04:14:22;8.30;91.60
62259;DHT22;48241;48.824;10.102;2022-11-20T04:16:48;8.00;91.20
62259;DHT22;48241;48.824;10.102;2022-11-20T04:19:15;8.00;91.90
62259;DHT22;48241;48.824;10.102;2022-11-20T04:21:42;7.60;92.10
62259;DHT22;48241;48.824;10.102;2022-11-20T04:24:08;7.60;91.90
62259;DHT22;48241;48.824;10.102;2022-11-20T04:26:34;7.70;91.90
62259;DHT22;48241;48.824;10.102;2022-11-20T04:29:00;7.70;91.70
62259;DHT22;48241;48.824;10.102;2022-11-20T04:31:33;7.70;91.90
62259;DHT22;48241;48.824;10.102;2022-11-20T04:34:01;7.80;92.20
62259;DHT22;48241;48.824;10.102;2022-11-20T04:36:27;8.00;91.70
62259;DHT22;48241;48.824;10.102;2022-11-20T04:38:58;7.90;91.70
62259;DHT22;48241;48.824;10.102;2022-11-20T04:41:26;7.90;91.80
62259;DHT22;48241;48.824;10.102;2022-11-20T04:43:55;8.10;91.50
62259;DHT22;48241;48.824;10.102;2022-11-20T04:46:25;7.90;91.40
62259;DHT22;48241;48.824;10.102;2022-11-20T04:48:51;7.70;91.20
62259;DHT22;48241;48.824;10.102;2022-11-20T04:51:16;7.70;91.50
62259;DHT22;48241;48.824;10.102;2022-11-20T04:53:42;7.70;91.90
62259;DHT22;48241;48.824;10.102;2022-11-20T04:56:10;7.40;91.80
62259;DHT22;48241;48.824;10.102;2022-11-20T04:58:37;7.50;91.80
62259;DHT22;48241;48.824;10.102;2022-11-20T05:01:11;7.40;91.60
62259;DHT22;48241;48.824;10.102;2022-11-20T05:03:38;7.40;91.60
62259;DHT22;48241;48.824;10.102;2022-11-20T05:06:05;7.50;92.60
62259;DHT22;48241;48.824;10.102;2022-11-20T05:08:32;7.60;92.10
62259;DHT22;48241;48.824;10.102;2022-11-20T05:13:27;7.80;91.70
62259;DHT22;48241;48.824;10.102;2022-11-20T05:15:52;7.70;92.10
62259;DHT22;48241;48.824;10.102;2022-11-20T05:18:18;7.90;91.70
62259;DHT22;48241;48.824;10.102;2022-11-20T05:20:43;7.70;91.50
62259;DHT22;48241;48.824;10.102;2022-11-20T05:23:09;7.60;91.60
62259;DHT22;48241;48.824;10.102;2022-11-20T05:25:35;7.40;91.80
62259;DHT22;48241;48.824;10.102;2022-11-20T05:28:00;7.50;91.80
62259;DHT22;48241;48.824;10.102;2022-11-20T05:30:26;7.80;91.40
62259;DHT22;48241;48.824;10.102;2022-11-20T05:32:51;8.10;90.80
62259;DHT22;48241;48.824;10.102;2022-11-20T05:35:17;8.20;91.10
62259;DHT22;48241;48.824;10.102;2022-11-20T05:37:42;8.10;91.00
62259;DHT22;48241;48.824;10.102;2022-11-20T05:40:08;8.30;90.70
62259;DHT22;48241;48.824;10.102;2022-11-20T05:42:34;8.40;90.40
62259;DHT22;48241;48.824;10.102;2022-11-20T05:45:02;8.50;90.30
62259;DHT22;48241;48.824;10.102;2022-11-20T05:47:32;8.60;90.30
62259;DHT22;48241;48.824;10.102;2022-11-20T05:49:58;8.60;89.70
62259;DHT22;48241;48.824;10.102;2022-11-20T05:52:24;8.60;90.40
62259;DHT22;48241;48.824;10.102;2022-11-20T05:54:49;8.70;90.00
62259;DHT22;48241;48.824;10.102;2022-11-20T05:57:15;8.60;90.20
62259;DHT22;48241;48.824;10.102;2022-11-20T05:59:42;8.40;90.50
62259;DHT22;48241;48.824;10.102;2022-11-20T06:02:08;8.30;90.00
62259;DHT22;48241;48.824;10.102;2022-11-20T06:04:33;8.40;90.10
62259;DHT22;48241;48.824;10.102;2022-11-20T06:06:59;8.40;90.20
62259;DHT22;48241;48.824;10.102;2022-11-20T06:09:25;8.40;90.50
62259;DHT22;48241;48.824;10.102;2022-11-20T06:11:50;8.50;90.80
62259;DHT22;48241;48.824;10.102;2022-11-20T06:14:16;8.40;90.90
62259;DHT22;48241;48.824;10.102;2022-11-20T06:16:41;8.50;90.70
62259;DHT22;48241;48.824;10.102;2022-11-20T06:19:07;8.60;90.30
62259;DHT22;48241;48.824;10.102;2022-11-20T06:21:32;8.60;90.20
62259;DHT22;48241;48.824;10.102;2022-11-20T06:23:58;8.50;90.60
62259;DHT22;48241;48.824;10.102;2022-11-20T06:26:25;8.50;90.60
62259;DHT22;48241;48.824;10.102;2022-11-20T06:28:52;8.70;90.30
62259;DHT22;48241;48.824;10.102;2022-11-20T06:31:23;8.50;90.40
62259;DHT22;48241;48.824;10.102;2022-11-20T06:33:50;8.60;90.30
62259;DHT22;48241;48.824;10.102;2022-11-20T06:36:18;8.70;90.20
62259;DHT22;48241;48.824;10.102;2022-11-20T06:38:44;8.60;90.60
62259;DHT22;48241;48.824;10.102;2022-11-20T06:41:15;8.70;90.30
62259;DHT22;48241;48.824;10.102;2022-11-20T06:43:41;8.70;90.10
62259;DHT22;48241;48.824;10.102;2022-11-20T06:46:09;8.50;90.10
62259;DHT22;48241;48.824;10.102;2022-11-20T06:48:35;8.40;89.80
62259;DHT22;48241;48.824;10.102;2022-11-20T06:51:04;8.40;90.60
62259;DHT22;48241;48.824;10.102;2022-11-20T06:53:30;8.30;90.90
62259;DHT22;48241;48.824;10.102;2022-11-20T06:55:56;8.10;91.20
62259;DHT22;48241;48.824;10.102;2022-11-20T06:58:23;8.10;91.30
62259;DHT22;48241;48.824;10.102;2022-11-20T07:00:49;7.90;91.90
62259;DHT22;48241;48.824;10.102;2022-11-20T07:03:14;8.10;91.60
62259;DHT22;48241;48.824;10.102;2022-11-20T07:05:40;8.20;91.10
62259;DHT22;48241;48.824;10.102;2022-11-20T07:08:06;8.20;91.70
62259;DHT22;48241;48.824;10.102;2022-11-20T07:10:32;8.10;91.90
62259;DHT22;48241;48.824;10.102;2022-11-20T07:12:57;7.90;92.10
62259;DHT22;48241;48.824;10.102;2022-11-20T07:15:24;7.70;91.80
62259;DHT22;48241;48.824;10.102;2022-11-20T07:17:50;7.90;92.50
62259;DHT22;48241;48.824;10.102;2022-11-20T07:20:16;7.80;91.50
62259;DHT22;48241;48.824;10.102;2022-11-20T07:22:44;7.70;92.20
62259;DHT22;48241;48.824;10.102;2022-11-20T07:28:40;8.10;91.20
62259;DHT22;48241;48.824;10.102;2022-11-20T07:31:08;8.20;90.90
62259;DHT22;48241;48.824;10.102;2022-11-20T07:33:34;8.10;90.80
62259;DHT22;48241;48.824;10.102;2022-11-20T07:36:18;8.10;91.10
62259;DHT22;48241;48.824;10.102;2022-11-20T07:38:46;8.00;90.90
62259;DHT22;48241;48.824;10.102;2022-11-20T07:41:15;8.10;90.50
62259;DHT22;48241;48.824;10.102;2022-11-20T07:43:48;8.20;90.60
62259;DHT22;48241;48.824;10.102;2022-11-20T07:46:14;8.30;90.50
62259;DHT22;48241;48.824;10.102;2022-11-20T07:48:39;8.40;90.20
62259;DHT22;48241;48.824;10.102;2022-11-20T07:51:08;8.30;89.50
62259;DHT22;48241;48.824;10.102;2022-11-20T07:53:34;8.20;89.90
62259;DHT22;48241;48.824;10.102;2022-11-20T07:56:01;8.40;90.00
62259;DHT22;48241;48.824;10.102;2022-11-20T07:58:33;8.50;87.90
62259;DHT22;48241;48.824;10.102;2022-11-20T08:01:05;8.30;89.40
62259;DHT22;48241;48.824;10.102;2022-11-20T08:03:31;8.20;89.20
62259;DHT22;48241;48.824;10.102;2022-11-20T08:06:03;8.40;89.70
62259;DHT22;48241;48.824;10.102;2022-11-20T08:08:29;8.30;88.90
62259;DHT22;48241;48.824;10.102;2022-11-20T08:11:01;8.60;88.00
62259;DHT22;48241;48.824;10.102;2022-11-20T08:13:45;8.70;87.20
62259;DHT22;48241;48.824;10.102;2022-11-20T08:16:29;8.80;87.20
62259;DHT22;48241;48.824;10.102;2022-11-20T08:19:00;8.70;87.60
62259;DHT22;48241;48.824;10.102;2022-11-20T08:21:29;8.30;88.90
62259;DHT22;48241;48.824;10.102;2022-11-20T08:23:55;8.20;90.10
62259;DHT22;48241;48.824;10.102;2022-11-20T08:26:25;8.50;89.80
62259;DHT22;48241;48.824;10.102;2022-11-20T08:28:57;8.80;87.00
62259;DHT22;48241;48.824;10.102;2022-11-20T08:31:27;8.80;86.70
62259;DHT22;48241;48.824;10.102;2022-11-20T08:33:55;8.80;85.80
62259;DHT22;48241;48.824;10.102;2022-11-20T08:36:22;8.80;87.00
62259;DHT22;48241;48.824;10.102;2022-11-20T08:38:53;8.90;86.30
62259;DHT22;48241;48.824;10.102;2022-11-20T08:41:19;9.00;86.80
62259;DHT22;48241;48.824;10.102;2022-11-20T08:44:02;8.90;87.60
62259;DHT22;48241;48.824;10.102;2022-11-20T08:46:34;8.70;87.30
62259;DHT22;48241;48.824;10.102;2022-11-20T08:49:05;8.90;87.90
62259;DHT22;48241;48.824;10.102;2022-11-20T08:51:32;8.70;87.80
62259;DHT22;48241;48.824;10.102;2022-11-20T08:53:58;8.90;88.20
62259;DHT22;48241;48.824;10.102;2022-11-20T08:56:24;9.10;88.50
62259;DHT22;48241;48.824;10.102;2022-11-20T08:58:50;9.10;87.30
62259;DHT22;48241;48.824;10.102;2022-11-20T09:01:18;9.30;87.90
62259;DHT22;48241;48.824;10.102;2022-11-20T09:03:44;9.10;86.70
62259;DHT22;48241;48.824;10.102;2022-11-20T09:06:09;8.80;89.00
62259;DHT22;48241;48.824;10.102;2022-11-20T09:08:35;8.80;90.40
62259;DHT22;48241;48.824;10.102;2022-11-20T09:11:04;8.70;90.40
62259;DHT22;48241;48.824;10.102;2022-11-20T09:13:31;8.50;90.90
62259;DHT22;48241;48.824;10.102;2022-11-20T09:15:59;8.60;91.30
62259;DHT22;48241;48.824;10.102;2022-11-20T09:18:27;8.50;91.10
62259;DHT22;48241;48.824;10.102;2022-11-20T09:20:59;8.20;92.60
62259;DHT22;48241;48.824;10.102;2022-11-20T09:23:26;8.20;92.20
62259;DHT22;48241;48.824;10.102;2022-11-20T09:25:55;8.40;92.20
62259;DHT22;48241;48.824;10.102;2022-11-20T09:28:25;8.40;92.50
62259;DHT22;48241;48.824;10.102;2022-11-20T09:30:50;8.70;90.70
62259;DHT22;48241;48.824;10.102;2022-11-20T09:33:16;8.40;91.80
62259;DHT22;48241;48.824;10.102;2022-11-20T09:35:43;8.60;91.30
62259;DHT22;48241;48.824;10.102;2022-11-20T09:38:10;8.90;90.90
62259;DHT22;48241;48.824;10.102;2022-11-20T09:40:45;8.80;90.80
62259;DHT22;48241;48.824;10.102;2022-11-20T09:43:20;9.00;90.70
62259;DHT22;48241;48.824;10.102;2022-11-20T09:46:04;9.10;90.30
62259;DHT22;48241;48.824;10.102;2022-11-20T09:54:13;8.60;90.50
62259;DHT22;48241;48.824;10.102;2022-11-20T09:56:44;8.70;90.80
62259;DHT22;48241;48.824;10.102;2022-11-20T09:59:38;8.90;90.60
62259;DHT22;48241;48.824;10.102;2022-11-20T10:05:10;7.90;92.70
62259;DHT22;48241;48.824;10.102;2022-11-20T10:07:53;7.90;93.40
62259;DHT22;48241;48.824;10.102;2022-11-20T10:10:38;7.80;93.70
62259;DHT22;48241;48.824;10.102;2022-11-20T10:13:24;7.80;93.90
62259;DHT22;48241;48.824;10.102;2022-11-20T10:24:34;8.20;93.30
62259;DHT22;48241;48.824;10.102;2022-11-20T10:30:17;8.00;93.20
62259;DHT22;48241;48.824;10.102;2022-11-20T10:32:52;8.10;93.80
62259;DHT22;48241;48.824;10.102;2022-11-20T10:36:00;8.10;93.20
62259;DHT22;48241;48.824;10.102;2022-11-20T10:38:26;8.20;93.10
62259;DHT22;48241;48.824;10.102;2022-11-20T10:40:59;8.10;93.50
62259;DHT22;48241;48.824;10.102;2022-11-20T10:43:46;8.30;93.50
62259;DHT22;48241;48.824;10.102;2022-11-20T10:46:21;8.10;93.40
62259;DHT22;48241;48.824;10.102;2022-11-20T10:48:48;8.10;94.00
62259;DHT22;48241;48.824;10.102;2022-11-20T10:51:46;8.10;94.00
62259;DHT22;48241;48.824;10.102;2022-11-20T10:54:30;8.20;94.00
62259;DHT22;48241;48.824;10.102;2022-11-20T11:05:22;8.60;93.50
62259;DHT22;48241;48.824;10.102;2022-11-20T11:07:58;8.50;93.80
62259;DHT22;48241;48.824;10.102;2022-11-20T11:13:22;8.80;93.30
62259;DHT22;48241;48.824;10.102;2022-11-20T11:15:48;8.90;93.70
62259;DHT22;48241;48.824;10.102;2022-11-20T11:18:29;9.10;93.00
62259;DHT22;48241;48.824;10.102;2022-11-20T11:20:59;9.00;92.70
62259;DHT22;48241;48.824;10.102;2022-11-20T11:26:01;8.90;93.40
62259;DHT22;48241;48.824;10.102;2022-11-20T11:28:28;8.90;92.70
62259;DHT22;48241;48.824;10.102;2022-11-20T11:30:54;8.60;93.10
62259;DHT22;48241;48.824;10.102;2022-11-20T11:33:27;8.70;92.50
62259;DHT22;48241;48.824;10.102;2022-11-20T11:35:56;8.50;92.90
62259;DHT22;48241;48.824;10.102;2022-11-20T11:38:39;8.60;93.30
62259;DHT22;48241;48.824;10.102;2022-11-20T11:41:09;8.50;93.00
62259;DHT22;48241;48.824;10.102;2022-11-20T11:43:36;8.70;93.20
62259;DHT22;48241;48.824;10.102;2022-11-20T11:46:33;8.40;94.00
62259;DHT22;48241;48.824;10.102;2022-11-20T11:57:00;8.40;94.60
62259;DHT22;48241;48.824;10.102;2022-11-20T11:59:34;8.10;93.60
62259;DHT22;48241;48.824;10.102;2022-11-20T12:05:09;7.90;94.50
62259;DHT22;48241;48.824;10.102;2022-11-20T12:07:43;7.90;94.50
62259;DHT22;48241;48.824;10.102;2022-11-20T12:10:38;7.80;95.20
62259;DHT22;48241;48.824;10.102;2022-11-20T12:15:48;7.50;95.40
62259;DHT22;48241;48.824;10.102;2022-11-20T12:18:21;7.70;95.20
62259;DHT22;48241;48.824;10.102;2022-11-20T12:35:04;7.80;95.10
62259;DHT22;48241;48.824;10.102;2022-11-20T12:43:00;8.40;94.40
62259;DHT22;48241;48.824;10.102;2022-11-20T12:48:36;8.40;93.20
62259;DHT22;48241;48.824;10.102;2022-11-20T13:02:55;10.20;91.60
62259;DHT22;48241;48.824;10.102;2022-11-20T13:05:12;10.20;90.10
62259;DHT22;48241;48.824;10.102;2022-11-20T13:07:40;10.50;90.80
62259;DHT22;48241;48.824;10.102;2022-11-20T13:10:16;10.70;89.80
62259;DHT22;48241;48.824;10.102;2022-11-20T13:12:47;10.70;89.20
62259;DHT22;48241;48.824;10.102;2022-11-20T13:15:38;10.20;88.90
62259;DHT22;48241;48.824;10.102;2022-11-20T13:18:11;10.10;89.90
62259;DHT22;48241;48.824;10.102;2022-11-20T13:20:42;10.00;90.30
62259;DHT22;48241;48.824;10.102;2022-11-20T13:23:08;9.80;90.00
62259;DHT22;48241;48.824;10.102;2022-11-20T13:25:39;9.90;90.00
62259;DHT22;48241;48.824;10.102;2022-11-20T13:30:31;10.00;90.40
62259;DHT22;48241;48.824;10.102;2022-11-20T13:33:37;10.10;87.30
62259;DHT22;48241;48.824;10.102;2022-11-20T13:36:07;9.80;86.40
62259;DHT22;48241;48.824;10.102;2022-11-20T13:38:50;9.60;86.80
62259;DHT22;48241;48.824;10.102;2022-11-20T13:41:28;9.30;87.20
62259;DHT22;48241;48.824;10.102;2022-11-20T13:44:05;9.20;87.90
62259;DHT22;48241;48.824;10.102;2022-11-20T13:46:43;8.80;89.10
62259;DHT22;48241;48.824;10.102;2022-11-20T13:49:29;9.10;88.30
62259;DHT22;48241;48.824;10.102;2022-11-20T13:55:18;9.00;89.70
62259;DHT22;48241;48.824;10.102;2022-11-20T13:58:56;9.00;90.10
62259;DHT22;48241;48.824;10.102;2022-11-20T14:00:58;9.00;90.30
62259;DHT22;48241;48.824;10.102;2022-11-20T14:03:29;9.20;89.40
62259;DHT22;48241;48.824;10.102;2022-11-20T14:06:00;9.10;90.10
62259;DHT22;48241;48.824;10.102;2022-11-20T14:08:46;8.90;90.20
62259;DHT22;48241;48.824;10.102;2022-11-20T14:11:19;8.90;90.50
62259;DHT22;48241;48.824;10.102;2022-11-20T14:14:04;8.90;90.10
62259;DHT22;48241;48.824;10.102;2022-11-20T14:16:32;8.90;90.20
62259;DHT22;48241;48.824;10.102;2022-11-20T14:21:46;8.90;89.50
62259;DHT22;48241;48.824;10.102;2022-11-20T14:24:14;9.00;90.00
62259;DHT22;48241;48.824;10.102;2022-11-20T14:26:44;9.10;89.80
62259;DHT22;48241;48.824;10.102;2022-11-20T14:42:25;8.90;90.00
62259;DHT22;48241;48.824;10.102;2022-11-20T14:44:54;9.30;89.40
62259;DHT22;48241;48.824;10.102;2022-11-20T14:47:31;9.40;89.30
62259;DHT22;48241;48.824;10.102;2022-11-20T14:49:57;9.60;88.60
62259;DHT22;48241;48.824;10.102;2022-11-20T14:52:26;9.30;86.30
62259;DHT22;48241;48.824;10.102;2022-11-20T14:54:54;9.40;86.60
62259;DHT22;48241;48.824;10.102;2022-11-20T14:57:30;9.50;85.90
62259;DHT22;48241;48.824;10.102;2022-11-20T15:00:19;9.40;85.90
62259;DHT22;48241;48.824;10.102;2022-11-20T15:02:46;9.50;85.30
62259;DHT22;48241;48.824;10.102;2022-11-20T15:05:14;9.30;84.10
62259;DHT22;48241;48.824;10.102;2022-11-20T15:07:42;9.00;84.00
62259;DHT22;48241;48.824;10.102;2022-11-20T15:10:21;9.00;84.20
62259;DHT22;48241;48.824;10.102;2022-11-20T15:12:52;8.90;84.70
62259;DHT22;48241;48.824;10.102;2022-11-20T15:15:48;8.90;83.70
62259;DHT22;48241;48.824;10.102;2022-11-20T15:18:17;8.90;82.90
62259;DHT22;48241;48.824;10.102;2022-11-20T15:20:43;8.80;84.40
62259;DHT22;48241;48.824;10.102;2022-11-20T15:23:17;8.80;83.40
62259;DHT22;48241;48.824;10.102;2022-11-20T15:25:47;8.60;83.20
62259;DHT22;48241;48.824;10.102;2022-11-20T15:28:58;8.40;84.50
62259;DHT22;48241;48.824;10.102;2022-11-20T15:31:06;8.50;83.00
62259;DHT22;48241;48.824;10.102;2022-11-20T15:33:32;8.50;83.70
62259;DHT22;48241;48.824;10.102;2022-11-20T15:35:59;8.50;83.70
62259;DHT22;48241;48.824;10.102;2022-11-20T15:38:24;8.40;84.90
62259;DHT22;48241;48.824;10.102;2022-11-20T15:40:50;8.40;84.00
62259;DHT22;48241;48.824;10.102;2022-11-20T15:43:16;8.50;84.60
62259;DHT22;48241;48.824;10.102;2022-11-20T15:45:48;8.30;84.00
62259;DHT22;48241;48.824;10.102;2022-11-20T15:48:16;8.20;84.60
62259;DHT22;48241;48.824;10.102;2022-11-20T15:50:51;8.10;85.10
62259;DHT22;48241;48.824;10.102;2022-11-20T15:53:18;7.80;86.90
62259;DHT22;48241;48.824;10.102;2022-11-20T15:55:44;8.00;85.60
62259;DHT22;48241;48.824;10.102;2022-11-20T15:58:09;7.90;86.80
62259;DHT22;48241;48.824;10.102;2022-11-20T16:00:35;7.90;86.20
62259;DHT22;48241;48.824;10.102;2022-11-20T16:03:03;8.00;86.20
62259;DHT22;48241;48.824;10.102;2022-11-20T16:05:29;7.80;86.80
62259;DHT22;48241;48.824;10.102;2022-11-20T16:07:55;7.80;86.60
62259;DHT22;48241;48.824;10.102;2022-11-20T16:10:21;8.10;85.70
62259;DHT22;48241;48.824;10.102;2022-11-20T16:12:50;8.20;84.20
62259;DHT22;48241;48.824;10.102;2022-11-20T16:15:34;8.10;85.60
62259;DHT22;48241;48.824;10.102;2022-11-20T16:18:14;7.90;84.30
62259;DHT22;48241;48.824;10.102;2022-11-20T16:20:40;8.00;85.40
62259;DHT22;48241;48.824;10.102;2022-11-20T16:23:06;8.20;84.70
62259;DHT22;48241;48.824;10.102;2022-11-20T16:25:32;8.40;83.70
62259;DHT22;48241;48.824;10.102;2022-11-20T16:27:58;8.40;84.80
62259;DHT22;48241;48.824;10.102;2022-11-20T16:30:24;8.30;84.10
62259;DHT22;48241;48.824;10.102;2022-11-20T16:32:50;8.30;84.00
62259;DHT22;48241;48.824;10.102;2022-11-20T16:35:16;8.30;85.00
62259;DHT22;48241;48.824;10.102;2022-11-20T16:37:41;8.10;85.30
62259;DHT22;48241;48.824;10.102;2022-11-20T16:40:09;8.20;83.90
62259;DHT22;48241;48.824;10.102;2022-11-20T16:42:36;7.90;85.30
62259;DHT22;48241;48.824;10.102;2022-11-20T16:45:02;7.90;86.00
62259;DHT22;48241;48.824;10.102;2022-11-20T16:47:28;8.00;85.90
62259;DHT22;48241;48.824;10.102;2022-11-20T16:49:57;8.00;85.00
62259;DHT22;48241;48.824;10.102;2022-11-20T16:52:23;8.10;85.10
62259;DHT22;48241;48.824;10.102;2022-11-20T16:54:51;8.20;84.90
62259;DHT22;48241;48.824;10.102;2022-11-20T16:57:17;7.80;85.10
62259;DHT22;48241;48.824;10.102;2022-11-20T16:59:43;8.00;86.30
62259;DHT22;48241;48.824;10.102;2022-11-20T17:02:09;7.90;85.80
62259;DHT22;48241;48.824;10.102;2022-11-20T17:04:35;7.90;85.30
62259;DHT22;48241;48.824;10.102;2022-11-20T17:07:01;8.00;86.00
62259;DHT22;48241;48.824;10.102;2022-11-20T17:09:27;7.80;86.10
62259;DHT22;48241;48.824;10.102;2022-11-20T17:11:53;8.00;86.30
62259;DHT22;48241;48.824;10.102;2022-11-20T17:14:19;7.50;87.30
62259;DHT22;48241;48.824;10.102;2022-11-20T17:16:44;7.50;88.60
62259;DHT22;48241;48.824;10.102;2022-11-20T17:19:10;7.60;88.70
62259;DHT22;48241;48.824;10.102;2022-11-20T17:21:39;7.40;89.20
62259;DHT22;48241;48.824;10.102;2022-11-20T17:24:10;7.40;90.40
62259;DHT22;48241;48.824;10.102;2022-11-20T17:26:37;7.70;89.30
62259;DHT22;48241;48.824;10.102;2022-11-20T17:29:12;7.60;88.90
62259;DHT22;48241;48.824;10.102;2022-11-20T17:31:38;7.60;90.10
62259;DHT22;48241;48.824;10.102;2022-11-20T17:34:05;7.50;90.20
62259;DHT22;48241;48.824;10.102;2022-11-20T17:36:31;7.40;90.40
62259;DHT22;48241;48.824;10.102;2022-11-20T17:38:58;7.40;90.20